New Chitose Airport
RJCC : now visible

Airfield :











YOU CAN JOIN US ON...

 
LOGIN :

Register | Disclaimer

   EN    FR    IT 

 









Legend :    VFR   Marginal VFR   IFR   Intensive IFR   Very Intensive IFR
Visi :
Ceiling :
>= 8 km
>= 3000ft
5 to 8 km
1000 to 3000 ft
1500m to 5 km
500 to 1000 ft
800 to 1500m
200 to 500 ft
< 800m
< 200 ft
Symbols :   Thunderstorms  Fog  Heavy snow  Heavy precipitations  Wind > 20 kt






- Airport Elevation : 82 ft
- IATA code : CTS


RJCC - New Chitose

CURRENT METAR :
  • 140108Z 35005KT 3100 R01L/P2000N R01R/P2000N BR FEW001 SCT003 BKN060 01/01 Q1013 RMK 1ST001 4ST003 7CU060 A2993 1500W

EXPIRED METARs :
  • 140030Z 35005KT 9999 -SHRASN FEW010 SCT020 BKN030 01/01 Q1014 RMK 1ST010 3CU020 7CU030 A2995
  • 140000Z 32008KT 260V340 9999 -SHRA FEW004 SCT020 BKN050 01/01 Q1014 RMK 1ST004 4CU020 7CU050 A2995
  • 132330Z 14003KT 9999 -SHRA FEW010 BKN050 BKN070 01/01 Q1014
  • 132300Z 14003KT 100V180 8000 -SHRA FEW005 BKN050 01/01 Q1014 RMK 1ST005 7CU050 A2996
  • 132230Z 14004KT 8000 -SHRA FEW003 SCT030 BKN050 01/01 Q1014 RMK 1ST003 4CU030 7CU050 A2997

TAF TAF RJCC
Valid from the 14 at 00:00 until the 15 at 06:00 UTC


132306Z 1400/1506 15004KT 9999 FEW005 BKN015
BECMG 1400/1402 35007KT
TEMPO 1400/1406 3000 -SHRA BR FEW003 BKN006
TEMPO 1406/1412 2000 -SHSN FEW003 BKN005
BECMG 1407/1409 34020G30KT
TEMPO 1412/1500 1500 -SHSN FEW003 BKN005



MET'MAP, your aeronautical weather chart ! - Copyright ORBIFLY December 2007 - Disclaimer

ORBIFLY MET'MAP TEAM :

Programming & Development : Alexandra Zaïnal
Concept & original design : Baudouin d'Aumeries
Assistance for programming : Marc-Olivier Méhu
Technical & hardware support : Manuel Goepfert

Contact : metmap@orbifly.com




SOURCES & CREDITS :

   NOAA       Earth
Advisory